createdAt,value
2022-08-07T00:00:59.811Z,2.20
2022-08-07T00:05:14.371Z,2.45
2022-08-07T00:09:35.422Z,2.00
2022-08-07T00:13:50.376Z,2.00
2022-08-07T00:18:04.659Z,2.00
2022-08-07T00:22:24.611Z,2.08
2022-08-07T00:26:59.417Z,2.00
2022-08-07T00:31:37.934Z,2.05
2022-08-07T00:35:55.476Z,2.28
2022-08-07T00:40:10.947Z,1.88
2022-08-07T00:44:29.150Z,1.90
2022-08-07T00:48:52.957Z,1.95
2022-08-07T00:53:09.239Z,1.75
2022-08-07T00:57:25.967Z,1.88
2022-08-07T01:01:44.065Z,1.70
2022-08-07T01:05:59.603Z,1.70
2022-08-07T01:10:15.797Z,1.70
2022-08-07T01:14:32.517Z,1.83
2022-08-07T01:18:53.694Z,1.90
2022-08-07T01:23:12.978Z,1.77
2022-08-07T01:27:32.299Z,1.73
2022-08-07T01:31:48.753Z,1.90
2022-08-07T01:36:07.594Z,2.00
2022-08-07T01:40:30.250Z,1.83
2022-08-07T01:44:48.049Z,2.00
2022-08-07T01:49:04.288Z,1.90
2022-08-07T01:53:21.737Z,2.10
2022-08-07T01:58:06.699Z,1.95
2022-08-07T02:03:11.717Z,2.00
2022-08-07T02:07:22.028Z,2.10
2022-08-07T02:12:04.213Z,2.08
2022-08-07T02:16:29.938Z,1.90
2022-08-07T02:20:55.828Z,2.20
2022-08-07T02:25:13.828Z,1.83
2022-08-07T02:29:36.743Z,1.98
2022-08-07T02:34:11.442Z,2.15
2022-08-07T02:38:34.915Z,2.10
2022-08-07T02:42:49.611Z,2.30
2022-08-07T02:47:07.138Z,2.50
2022-08-07T02:51:41.679Z,2.20
2022-08-07T02:56:02.627Z,2.20
2022-08-07T03:00:18.522Z,1.98
2022-08-07T03:04:32.485Z,2.10
2022-08-07T03:08:49.058Z,2.25
2022-08-07T03:13:08.953Z,2.28
2022-08-07T03:17:24.946Z,2.10
2022-08-07T03:21:39.294Z,2.35
2022-08-07T03:26:08.178Z,2.15
2022-08-07T03:30:38.043Z,2.13
2022-08-07T03:35:12.960Z,2.25
2022-08-07T03:40:00.141Z,2.40
2022-08-07T03:44:08.654Z,2.30
2022-08-07T03:48:25.867Z,2.20
2022-08-07T03:52:39.765Z,2.28
2022-08-07T03:57:03.408Z,2.53
2022-08-07T04:01:20.989Z,2.30
2022-08-07T04:05:40.348Z,2.30
2022-08-07T04:09:58.173Z,2.20
2022-08-07T04:14:37.834Z,1.90
2022-08-07T04:18:59.218Z,2.13
2022-08-07T04:23:19.255Z,2.28
2022-08-07T04:27:44.118Z,2.03
2022-08-07T04:32:03.367Z,2.20
2022-08-07T04:36:26.519Z,2.10
2022-08-07T04:40:51.410Z,2.20
2022-08-07T04:45:08.522Z,2.10
2022-08-07T04:49:37.742Z,2.40
2022-08-07T04:54:06.288Z,2.42
2022-08-07T04:58:49.632Z,1.90
2022-08-07T05:03:17.273Z,2.03
2022-08-07T05:07:58.200Z,2.10
2022-08-07T05:12:26.909Z,2.25
2022-08-07T05:16:53.046Z,2.08
2022-08-07T05:21:11.473Z,2.08
2022-08-07T05:25:54.385Z,2.10
2022-08-07T05:30:06.233Z,2.60
2022-08-07T05:34:27.681Z,2.30
2022-08-07T05:39:00.643Z,2.20
2022-08-07T05:43:17.526Z,2.13
2022-08-07T05:48:02.094Z,2.20
2022-08-07T05:52:15.872Z,1.90
2022-08-07T05:56:36.547Z,2.70
2022-08-07T06:00:52.290Z,2.20
2022-08-07T06:05:15.653Z,2.22
2022-08-07T06:10:03.943Z,2.05
2022-08-07T06:14:21.300Z,2.08
2022-08-07T06:18:55.534Z,2.22
2022-08-07T06:23:46.099Z,2.10
2022-08-07T06:28:01.011Z,2.53
2022-08-07T06:32:16.015Z,2.05
2022-08-07T06:36:35.349Z,2.60
2022-08-07T06:40:54.986Z,2.17
2022-08-07T06:45:18.000Z,2.17
2022-08-07T06:49:32.316Z,2.30
2022-08-07T06:54:12.064Z,2.30
2022-08-07T06:58:28.817Z,2.08
2022-08-07T07:02:48.372Z,2.60
2022-08-07T07:07:58.345Z,2.10
2022-08-07T07:12:08.937Z,1.73
2022-08-07T07:16:44.987Z,1.73
2022-08-07T07:21:13.458Z,1.80
2022-08-07T07:26:34.176Z,2.08
2022-08-07T07:30:12.190Z,1.90
2022-08-07T07:34:35.229Z,1.92
2022-08-07T07:38:53.218Z,2.05
2022-08-07T07:43:15.168Z,2.15
2022-08-07T07:47:42.804Z,1.90
2022-08-07T07:52:10.055Z,2.13
2022-08-07T07:56:30.145Z,2.22
2022-08-07T08:00:48.699Z,2.17
2022-08-07T08:05:14.468Z,1.80
2022-08-07T08:09:30.830Z,1.85
2022-08-07T08:14:04.432Z,1.90
2022-08-07T08:18:18.672Z,2.15
2022-08-07T08:22:55.916Z,2.00
2022-08-07T08:27:14.436Z,2.00
2022-08-07T08:32:17.326Z,1.95
2022-08-07T08:36:08.568Z,2.28
2022-08-07T08:40:29.109Z,1.80
2022-08-07T08:44:49.658Z,2.20
2022-08-07T08:49:10.463Z,2.25
2022-08-07T08:53:34.578Z,2.13
2022-08-07T08:57:56.403Z,1.95
2022-08-07T09:02:19.001Z,2.13
2022-08-07T09:06:56.768Z,2.00
2022-08-07T09:11:24.981Z,1.90
2022-08-07T09:16:22.881Z,1.73
2022-08-07T09:20:58.502Z,2.17
2022-08-07T09:25:24.339Z,2.10
2022-08-07T09:30:05.065Z,1.90
2022-08-07T09:34:29.391Z,1.95
2022-08-07T09:38:53.727Z,2.13
2022-08-07T09:43:18.140Z,1.90
2022-08-07T09:47:59.987Z,2.33
2022-08-07T09:52:34.443Z,2.03
2022-08-07T09:57:16.429Z,2.15
2022-08-07T10:01:54.768Z,1.90
2022-08-07T10:06:35.640Z,1.83
2022-08-07T10:12:00.268Z,1.85
2022-08-07T10:15:47.612Z,1.70
2022-08-07T10:20:33.104Z,1.80
2022-08-07T10:25:24.302Z,1.50
2022-08-07T10:30:17.003Z,1.50
2022-08-07T10:34:45.776Z,1.90
2022-08-07T10:39:19.593Z,1.52
2022-08-07T10:43:43.263Z,1.63
2022-08-07T10:49:24.596Z,1.55
2022-08-07T10:54:37.891Z,1.50
2022-08-07T10:59:15.670Z,1.55
2022-08-07T11:04:23.115Z,1.60
2022-08-07T11:08:45.908Z,1.50
2022-08-07T11:13:06.162Z,1.60
2022-08-07T11:17:45.082Z,1.73
2022-08-07T11:22:26.696Z,1.45
2022-08-07T11:26:55.840Z,1.50
2022-08-07T11:31:21.870Z,1.75
2022-08-07T11:36:02.561Z,1.50
2022-08-07T11:40:40.426Z,1.85
2022-08-07T11:45:20.289Z,1.40
2022-08-07T11:50:30.608Z,1.40
2022-08-07T11:55:01.709Z,1.55
2022-08-07T12:00:12.506Z,1.60
2022-08-07T12:04:26.250Z,1.40
2022-08-07T12:08:45.945Z,1.38
2022-08-07T12:13:11.359Z,1.30
2022-08-07T12:17:41.607Z,1.40
2022-08-07T12:22:37.157Z,1.30
2022-08-07T12:26:58.956Z,1.40
2022-08-07T12:31:25.649Z,1.40
2022-08-07T12:36:02.417Z,1.30
2022-08-07T12:40:46.796Z,1.58
2022-08-07T12:44:56.921Z,1.55
2022-08-07T12:49:39.680Z,1.67
2022-08-07T12:54:37.253Z,1.40
2022-08-07T12:58:39.929Z,1.30
2022-08-07T13:03:09.483Z,1.60
2022-08-07T13:08:11.869Z,1.27
2022-08-07T13:12:32.914Z,1.35
2022-08-07T13:16:55.613Z,1.30
2022-08-07T13:21:23.604Z,1.40
2022-08-07T13:26:00.774Z,1.60
2022-08-07T13:30:19.754Z,1.52
2022-08-07T13:34:55.352Z,1.60
2022-08-07T13:39:28.257Z,1.60
2022-08-07T13:43:56.857Z,1.35
2022-08-07T13:48:27.511Z,1.60
2022-08-07T13:52:47.027Z,1.70
2022-08-07T13:57:02.729Z,1.67
2022-08-07T14:01:22.067Z,1.48
2022-08-07T14:05:38.221Z,1.42
2022-08-07T14:10:01.279Z,1.30
2022-08-07T14:14:20.045Z,1.45
2022-08-07T14:18:42.374Z,1.52
2022-08-07T14:23:05.542Z,1.30
2022-08-07T14:32:07.993Z,1.30
2022-08-07T14:36:24.470Z,1.40
2022-08-07T14:40:38.073Z,1.55
2022-08-07T14:44:59.829Z,1.52
2022-08-07T14:49:17.267Z,1.35
2022-08-07T14:54:30.261Z,1.42
2022-08-07T14:58:30.011Z,1.45
2022-08-07T15:02:46.741Z,1.20
2022-08-07T15:07:21.452Z,1.50
2022-08-07T15:11:53.514Z,1.23
2022-08-07T15:20:56.039Z,1.73
2022-08-07T15:30:06.692Z,1.60
2022-08-07T15:34:27.693Z,1.80
2022-08-07T15:38:51.366Z,1.90
2022-08-07T15:43:53.687Z,1.60
2022-08-07T15:48:02.177Z,1.80
2022-08-07T15:52:21.784Z,1.60
2022-08-07T15:56:58.041Z,1.58
2022-08-07T16:01:20.446Z,1.70
2022-08-07T16:05:36.755Z,1.60
2022-08-07T16:09:55.424Z,1.73
2022-08-07T16:14:17.198Z,1.55
2022-08-07T16:18:59.497Z,1.80
2022-08-07T16:23:53.776Z,1.98
2022-08-07T16:30:07.438Z,2.20
2022-08-07T16:34:02.644Z,2.00
2022-08-07T16:38:17.073Z,1.80
2022-08-07T16:42:55.078Z,2.00
2022-08-07T16:47:56.525Z,2.10
2022-08-07T16:52:51.964Z,2.00
2022-08-07T16:57:06.034Z,1.95
2022-08-07T17:01:41.293Z,1.92
2022-08-07T17:06:29.825Z,2.08
2022-08-07T17:10:54.602Z,2.00
2022-08-07T17:15:21.233Z,2.00
2022-08-07T17:20:01.755Z,1.80
2022-08-07T17:24:55.370Z,1.80
2022-08-07T17:30:12.706Z,2.00
2022-08-07T17:34:18.294Z,2.10
2022-08-07T17:38:50.854Z,2.08
2022-08-07T17:43:15.036Z,2.10
2022-08-07T17:47:42.837Z,1.90
2022-08-07T17:52:03.294Z,1.95
2022-08-07T17:56:28.476Z,2.55
2022-08-07T18:00:51.812Z,2.92
2022-08-07T18:05:21.277Z,3.75
2022-08-07T18:10:04.715Z,3.15
2022-08-07T18:14:23.683Z,3.45
2022-08-07T18:21:07.958Z,3.10
2022-08-07T18:23:42.959Z,2.50
2022-08-07T18:28:35.597Z,2.58
2022-08-07T18:33:27.038Z,2.78
2022-08-07T18:38:55.690Z,2.70
2022-08-07T18:42:36.671Z,2.72
2022-08-07T18:47:01.651Z,2.50
2022-08-07T18:52:33.395Z,2.50
2022-08-07T18:56:03.260Z,2.67
2022-08-07T19:00:32.779Z,2.50
2022-08-07T19:05:09.842Z,2.53
2022-08-07T19:09:57.568Z,2.50
2022-08-07T19:14:20.218Z,2.40
2022-08-07T19:18:44.521Z,2.17
2022-08-07T19:23:18.580Z,2.50
2022-08-07T19:28:58.034Z,2.40
2022-08-07T19:32:27.742Z,2.55
2022-08-07T19:37:10.232Z,2.20
2022-08-07T19:41:44.783Z,2.50
2022-08-07T19:46:26.434Z,2.30
2022-08-07T19:50:49.818Z,2.35
2022-08-07T19:55:11.124Z,2.10
2022-08-07T19:59:40.735Z,2.40
2022-08-07T20:03:58.911Z,2.38
2022-08-07T20:08:16.946Z,2.20
2022-08-07T20:12:35.852Z,2.50
2022-08-07T20:16:54.443Z,2.38
2022-08-07T20:21:21.204Z,2.40
2022-08-07T20:25:40.499Z,2.80
2022-08-07T20:30:00.365Z,2.53
2022-08-07T20:34:34.368Z,2.28
2022-08-07T20:39:00.843Z,2.50
2022-08-07T20:43:26.633Z,2.50
2022-08-07T20:47:56.416Z,2.70
2022-08-07T20:52:21.185Z,2.38
2022-08-07T20:56:52.081Z,2.63
2022-08-07T21:01:20.034Z,2.60
2022-08-07T21:05:51.125Z,2.58
2022-08-07T21:10:11.710Z,2.40
2022-08-07T21:14:34.326Z,2.38
2022-08-07T21:18:54.386Z,2.83
2022-08-07T21:23:17.139Z,2.67
2022-08-07T21:27:53.750Z,2.40
2022-08-07T21:32:47.339Z,2.45
2022-08-07T21:37:00.016Z,2.55
2022-08-07T21:41:23.506Z,2.30
2022-08-07T21:46:10.834Z,2.50
2022-08-07T21:50:26.369Z,2.10
2022-08-07T21:54:52.945Z,2.50
2022-08-07T21:59:10.478Z,2.55
2022-08-07T22:03:37.423Z,2.33
2022-08-07T22:07:58.748Z,2.60
2022-08-07T22:12:16.401Z,2.28
2022-08-07T22:16:43.511Z,2.53
2022-08-07T22:21:02.773Z,4.05
2022-08-07T22:25:28.014Z,2.50
2022-08-07T22:29:55.636Z,2.30
2022-08-07T22:34:14.172Z,2.50
2022-08-07T22:38:37.737Z,2.20
2022-08-07T22:42:59.085Z,2.40
2022-08-07T22:47:25.851Z,2.60
2022-08-07T22:52:02.389Z,2.40
2022-08-07T22:56:20.239Z,2.50
2022-08-07T23:00:47.818Z,2.40
2022-08-07T23:06:08.351Z,2.38
2022-08-07T23:10:34.054Z,2.00
2022-08-07T23:14:59.294Z,2.13
2022-08-07T23:19:51.421Z,2.40
2022-08-07T23:24:34.401Z,2.10
2022-08-07T23:30:35.893Z,2.40
2022-08-07T23:34:39.332Z,2.47
2022-08-07T23:39:08.302Z,2.03
2022-08-07T23:43:54.663Z,2.10
2022-08-07T23:48:27.663Z,1.98
2022-08-07T23:53:15.188Z,2.10
2022-08-07T23:57:32.402Z,2.22
